createdAt,value
2023-03-21T00:00:55.468Z,41.03
2023-03-21T00:03:23.414Z,41.49
2023-03-21T00:05:53.437Z,41.30
2023-03-21T00:08:22.162Z,41.64
2023-03-21T00:10:56.765Z,41.59
2023-03-21T00:13:26.469Z,41.35
2023-03-21T00:16:05.382Z,41.51
2023-03-21T00:18:42.270Z,41.41
2023-03-21T00:21:39.579Z,41.10
2023-03-21T00:24:03.416Z,41.20
2023-03-21T00:26:32.980Z,41.25
2023-03-21T00:29:00.795Z,41.36
2023-03-21T00:31:28.679Z,41.32
2023-03-21T00:33:56.630Z,41.36
2023-03-21T00:36:25.953Z,41.26
2023-03-21T00:38:54.104Z,41.51
2023-03-21T00:41:38.991Z,41.51
2023-03-21T00:44:11.604Z,41.39
2023-03-21T00:46:47.251Z,41.59
2023-03-21T00:49:20.924Z,41.37
2023-03-21T00:51:51.233Z,40.97
2023-03-21T00:54:19.576Z,41.21
2023-03-21T00:56:47.406Z,41.39
2023-03-21T00:59:17.319Z,41.88
2023-03-21T01:01:46.748Z,41.74
2023-03-21T01:04:16.887Z,41.59
2023-03-21T01:06:45.456Z,41.64
2023-03-21T01:09:16.742Z,41.96
2023-03-21T01:11:44.842Z,41.88
2023-03-21T01:14:28.830Z,41.92
2023-03-21T01:16:58.185Z,41.92
2023-03-21T01:19:41.027Z,41.75
2023-03-21T01:22:16.240Z,41.66
2023-03-21T01:24:53.127Z,41.51
2023-03-21T01:27:22.329Z,41.77
2023-03-21T01:29:50.424Z,41.50
2023-03-21T01:32:19.592Z,41.65
2023-03-21T01:34:47.456Z,41.69
2023-03-21T01:37:17.737Z,42.17
2023-03-21T01:39:48.695Z,41.66
2023-03-21T01:42:17.089Z,42.22
2023-03-21T01:44:58.677Z,42.15
2023-03-21T01:47:35.874Z,42.24
2023-03-21T01:50:09.554Z,42.11
2023-03-21T01:52:49.903Z,42.13
2023-03-21T01:55:25.388Z,41.96
2023-03-21T01:58:05.835Z,41.85
2023-03-21T02:00:51.626Z,42.28
2023-03-21T02:03:38.038Z,42.27
2023-03-21T02:06:25.166Z,42.33
2023-03-21T02:09:01.761Z,42.51
2023-03-21T02:11:32.145Z,42.78
2023-03-21T02:14:06.166Z,42.50
2023-03-21T02:17:00.269Z,42.55
2023-03-21T02:20:21.938Z,43.06
2023-03-21T02:23:29.980Z,43.02
2023-03-21T02:26:16.953Z,42.87
2023-03-21T02:28:49.135Z,43.07
2023-03-21T02:31:32.417Z,42.75
2023-03-21T02:34:37.193Z,42.96
2023-03-21T02:37:18.016Z,43.06
2023-03-21T02:40:07.799Z,43.09
2023-03-21T02:42:51.588Z,42.82
2023-03-21T02:45:29.915Z,42.77
2023-03-21T02:48:04.949Z,42.90
2023-03-21T02:50:39.140Z,42.75
2023-03-21T02:53:10.109Z,43.41
2023-03-21T02:55:40.591Z,43.27
2023-03-21T02:58:13.598Z,43.00
2023-03-21T03:00:51.146Z,43.32
2023-03-21T03:03:35.157Z,42.76
2023-03-21T03:06:12.769Z,42.88
2023-03-21T03:09:02.351Z,43.18
2023-03-21T03:11:34.897Z,43.31
2023-03-21T03:14:42.048Z,43.51
2023-03-21T03:17:21.906Z,43.30
2023-03-21T03:20:16.379Z,43.56
2023-03-21T03:22:52.216Z,43.34
2023-03-21T03:25:39.903Z,43.14
2023-03-21T03:28:12.635Z,43.31
2023-03-21T03:30:51.017Z,43.36
2023-03-21T03:33:29.953Z,43.24
2023-03-21T03:36:05.436Z,43.29
2023-03-21T03:38:39.050Z,43.61
2023-03-21T03:41:12.781Z,43.15
2023-03-21T03:43:54.000Z,43.05
2023-03-21T03:46:29.412Z,43.89
2023-03-21T03:49:01.377Z,43.43
2023-03-21T03:51:35.610Z,43.49
2023-03-21T03:54:28.902Z,43.22
2023-03-21T03:56:59.182Z,43.21
2023-03-21T03:59:27.116Z,43.46
2023-03-21T04:02:13.960Z,43.24
2023-03-21T04:04:42.823Z,43.60
2023-03-21T04:07:11.313Z,43.77
2023-03-21T04:09:44.445Z,43.31
2023-03-21T04:12:17.539Z,43.32
2023-03-21T04:15:10.006Z,43.61
2023-03-21T04:17:40.542Z,43.63
2023-03-21T04:20:15.067Z,43.54
2023-03-21T04:22:44.677Z,43.05
2023-03-21T04:25:18.935Z,43.47
2023-03-21T04:27:57.130Z,43.46
2023-03-21T04:30:38.498Z,43.10
2023-03-21T04:33:17.490Z,43.17
2023-03-21T04:35:56.141Z,43.59
2023-03-21T04:38:30.547Z,43.17
2023-03-21T04:41:02.490Z,43.54
2023-03-21T04:43:32.690Z,43.05
2023-03-21T04:46:00.722Z,43.55
2023-03-21T04:48:28.671Z,43.53
2023-03-21T04:50:57.430Z,43.16
2023-03-21T04:53:25.457Z,43.15
2023-03-21T04:55:55.412Z,43.46
2023-03-21T04:58:24.138Z,43.22
2023-03-21T05:00:53.544Z,43.26
2023-03-21T05:03:22.001Z,43.42
2023-03-21T05:05:50.567Z,43.33
2023-03-21T05:08:20.039Z,43.37
2023-03-21T05:10:48.066Z,43.24
2023-03-21T05:13:16.013Z,43.60
2023-03-21T05:15:43.983Z,43.24
2023-03-21T05:18:13.183Z,43.23
2023-03-21T05:20:58.150Z,43.18
2023-03-21T05:23:26.418Z,43.75
2023-03-21T05:25:54.532Z,43.67
2023-03-21T05:28:36.725Z,43.92
2023-03-21T05:31:05.678Z,43.78
2023-03-21T05:33:35.285Z,43.53
2023-03-21T05:36:03.242Z,43.60
2023-03-21T05:38:33.123Z,43.58
2023-03-21T05:41:01.112Z,44.08
2023-03-21T05:43:29.158Z,44.30
2023-03-21T05:45:57.190Z,44.14
2023-03-21T05:48:25.756Z,44.20
2023-03-21T05:51:09.262Z,44.03
2023-03-21T05:53:37.782Z,44.35
2023-03-21T05:56:06.479Z,43.91
2023-03-21T05:58:46.558Z,44.36
2023-03-21T06:01:15.270Z,44.42
2023-03-21T06:03:49.338Z,44.25
2023-03-21T06:06:20.565Z,44.30
2023-03-21T06:09:00.556Z,44.70
2023-03-21T06:11:32.475Z,44.62
2023-03-21T06:14:36.034Z,44.74
2023-03-21T06:17:17.446Z,44.83
2023-03-21T06:19:50.897Z,44.65
2023-03-21T06:22:25.397Z,44.92
2023-03-21T06:24:53.394Z,44.68
2023-03-21T06:27:21.274Z,44.73
2023-03-21T06:29:52.916Z,45.02
2023-03-21T06:32:21.326Z,45.14
2023-03-21T06:34:53.113Z,45.08
2023-03-21T06:37:21.209Z,45.35
2023-03-21T06:39:50.996Z,44.75
2023-03-21T06:42:21.098Z,45.18
2023-03-21T06:44:49.163Z,45.16
2023-03-21T06:47:17.630Z,44.70
2023-03-21T06:49:47.069Z,45.07
2023-03-21T06:52:14.890Z,45.15
2023-03-21T06:54:43.339Z,45.01
2023-03-21T06:57:14.206Z,45.47
2023-03-21T06:59:42.723Z,45.27
2023-03-21T07:02:15.109Z,45.28
2023-03-21T07:04:49.269Z,45.54
2023-03-21T07:07:21.033Z,45.58
2023-03-21T07:09:48.916Z,45.67
2023-03-21T07:12:18.283Z,45.28
2023-03-21T07:15:09.762Z,45.44
2023-03-21T07:17:38.668Z,45.50
2023-03-21T07:20:08.530Z,45.49
2023-03-21T07:22:36.917Z,45.78
2023-03-21T07:25:05.987Z,45.42
2023-03-21T07:27:41.594Z,45.82
2023-03-21T07:30:11.721Z,45.56
2023-03-21T07:32:40.446Z,45.34
2023-03-21T07:35:11.428Z,45.90
2023-03-21T07:37:39.737Z,45.97
2023-03-21T07:40:10.610Z,45.59
2023-03-21T07:42:41.968Z,46.17
2023-03-21T07:45:15.567Z,46.07
2023-03-21T07:47:43.964Z,46.23
2023-03-21T07:50:12.165Z,45.85
2023-03-21T07:52:40.273Z,46.11
2023-03-21T07:55:08.796Z,45.98
2023-03-21T07:57:36.701Z,46.69
2023-03-21T08:00:08.038Z,46.99
2023-03-21T08:02:43.597Z,46.64
2023-03-21T08:05:12.027Z,46.91
2023-03-21T08:07:39.868Z,46.73
2023-03-21T08:10:10.743Z,46.80
2023-03-21T08:12:38.573Z,47.01
2023-03-21T08:15:09.241Z,47.12
2023-03-21T08:17:39.892Z,47.11
2023-03-21T08:20:10.261Z,47.11
2023-03-21T08:22:38.135Z,47.30
2023-03-21T08:25:08.265Z,47.26
2023-03-21T08:27:36.250Z,47.60
2023-03-21T08:30:04.690Z,47.53
2023-03-21T08:32:33.911Z,47.77
2023-03-21T08:35:03.197Z,47.91
2023-03-21T08:37:31.131Z,47.79
2023-03-21T08:39:59.028Z,48.04
2023-03-21T08:42:27.202Z,48.17
2023-03-21T08:44:54.985Z,47.89
2023-03-21T08:47:22.776Z,48.18
2023-03-21T08:49:51.916Z,47.87
2023-03-21T08:52:19.837Z,47.84
2023-03-21T08:54:48.488Z,48.26
2023-03-21T08:57:16.443Z,48.13
2023-03-21T08:59:44.352Z,48.40
2023-03-21T09:02:14.548Z,48.58
2023-03-21T09:04:43.739Z,48.64
2023-03-21T09:07:14.945Z,48.84
2023-03-21T09:09:43.656Z,48.46
2023-03-21T09:12:11.645Z,49.00
2023-03-21T09:14:39.489Z,48.93
2023-03-21T09:17:07.539Z,48.84
2023-03-21T09:19:35.943Z,48.91
2023-03-21T09:22:03.761Z,49.13
2023-03-21T09:24:32.971Z,49.07
2023-03-21T09:27:00.968Z,48.68
2023-03-21T09:29:29.401Z,48.94
2023-03-21T09:31:57.634Z,48.91
2023-03-21T09:34:26.481Z,49.24
2023-03-21T09:36:56.621Z,49.19
2023-03-21T09:39:26.268Z,49.24
2023-03-21T09:42:12.656Z,50.08
2023-03-21T09:44:52.752Z,49.67
2023-03-21T09:47:25.153Z,49.03
2023-03-21T09:50:07.545Z,49.40
2023-03-21T09:52:48.150Z,49.59
2023-03-21T09:55:20.119Z,49.13
2023-03-21T09:57:55.046Z,49.33
2023-03-21T10:00:29.944Z,49.22
2023-03-21T10:03:03.087Z,48.93
2023-03-21T10:05:33.609Z,49.22
2023-03-21T10:08:05.924Z,49.32
2023-03-21T10:10:36.932Z,49.31
2023-03-21T10:13:13.059Z,49.49
2023-03-21T10:15:41.152Z,48.96
2023-03-21T10:18:14.404Z,49.18
2023-03-21T10:20:43.460Z,49.11
2023-03-21T10:23:15.998Z,49.67
2023-03-21T10:25:47.580Z,49.09
2023-03-21T10:28:20.837Z,49.27
2023-03-21T10:30:52.018Z,48.94
2023-03-21T10:33:23.780Z,49.11
2023-03-21T10:35:54.627Z,49.22
2023-03-21T10:38:25.652Z,49.27
2023-03-21T10:40:54.817Z,49.10
2023-03-21T10:43:37.773Z,49.73
2023-03-21T10:46:10.510Z,50.03
2023-03-21T10:48:40.489Z,49.42
2023-03-21T10:51:10.185Z,49.29
2023-03-21T10:53:42.431Z,49.56
2023-03-21T10:56:12.402Z,49.28
2023-03-21T10:58:45.512Z,49.21
2023-03-21T11:01:19.260Z,49.21
2023-03-21T11:03:48.402Z,49.08
2023-03-21T11:06:23.746Z,49.08
2023-03-21T11:08:55.480Z,48.92
2023-03-21T11:11:28.256Z,49.78
2023-03-21T11:14:01.654Z,49.86
2023-03-21T11:16:39.029Z,49.32
2023-03-21T11:19:18.295Z,49.15
2023-03-21T11:21:46.556Z,49.18
2023-03-21T11:24:17.990Z,48.95
2023-03-21T11:26:49.686Z,49.08
2023-03-21T11:29:32.300Z,49.21
2023-03-21T11:32:02.523Z,48.76
2023-03-21T11:34:40.352Z,48.95
2023-03-21T11:37:20.164Z,49.56
2023-03-21T11:39:48.026Z,49.21
2023-03-21T11:42:28.545Z,49.16
2023-03-21T11:45:11.390Z,49.28
2023-03-21T11:47:39.880Z,48.71
2023-03-21T11:50:21.704Z,49.20
2023-03-21T11:53:00.932Z,49.35
2023-03-21T11:55:47.330Z,48.70
2023-03-21T11:58:31.816Z,49.04
2023-03-21T12:01:09.182Z,48.39
2023-03-21T12:03:54.755Z,49.01
2023-03-21T12:06:29.448Z,48.66
2023-03-21T12:09:13.181Z,48.99
2023-03-21T12:11:53.468Z,48.80
2023-03-21T12:14:30.009Z,48.88
2023-03-21T12:17:11.434Z,48.71
2023-03-21T12:20:15.033Z,48.63
2023-03-21T12:22:48.718Z,49.24
2023-03-21T12:25:20.421Z,48.18
2023-03-21T12:28:03.629Z,48.12
2023-03-21T12:30:46.203Z,48.28
2023-03-21T12:33:29.657Z,48.75
2023-03-21T12:36:23.177Z,48.48
2023-03-21T12:38:59.852Z,48.75
2023-03-21T12:41:35.858Z,48.79
2023-03-21T12:44:06.658Z,48.19
2023-03-21T12:46:40.246Z,48.74
2023-03-21T12:49:14.834Z,48.98
2023-03-21T12:51:45.004Z,48.86
2023-03-21T12:54:22.465Z,49.24
2023-03-21T12:56:55.828Z,48.79
2023-03-21T12:59:32.158Z,48.84
2023-03-21T13:02:06.815Z,48.67
2023-03-21T13:04:53.426Z,48.97
2023-03-21T13:07:25.441Z,48.83
2023-03-21T13:09:55.294Z,48.98
2023-03-21T13:12:33.119Z,48.50
2023-03-21T13:15:24.000Z,49.08
2023-03-21T13:18:02.701Z,48.55
2023-03-21T13:20:39.841Z,48.58
2023-03-21T13:23:09.113Z,48.52
2023-03-21T13:25:43.569Z,48.65
2023-03-21T13:28:19.708Z,48.69
2023-03-21T13:30:48.767Z,48.24
2023-03-21T13:33:21.684Z,48.72
2023-03-21T13:35:56.670Z,49.04
2023-03-21T13:38:28.010Z,48.61
2023-03-21T13:41:01.775Z,48.94
2023-03-21T13:43:43.198Z,48.75
2023-03-21T13:46:13.822Z,48.90
2023-03-21T13:49:00.169Z,48.97
2023-03-21T13:51:48.023Z,48.67
2023-03-21T13:54:24.199Z,49.10
2023-03-21T13:56:57.771Z,48.77
2023-03-21T13:59:42.490Z,48.87
2023-03-21T14:02:30.784Z,48.44
2023-03-21T14:05:06.118Z,48.84
2023-03-21T14:07:38.054Z,48.61
2023-03-21T14:10:10.618Z,48.31
2023-03-21T14:12:41.231Z,48.80
2023-03-21T14:15:17.171Z,48.36
2023-03-21T14:17:51.790Z,48.58
2023-03-21T14:20:22.718Z,47.93
2023-03-21T14:22:52.047Z,48.06
2023-03-21T14:25:23.235Z,48.38
2023-03-21T14:27:55.882Z,48.26
2023-03-21T14:30:27.022Z,48.07
2023-03-21T14:32:57.478Z,47.84
2023-03-21T14:35:31.304Z,47.94
2023-03-21T14:38:05.415Z,47.87
2023-03-21T14:40:33.339Z,47.84
2023-03-21T14:43:06.221Z,47.87
2023-03-21T14:45:37.169Z,47.71
2023-03-21T14:48:08.545Z,48.11
2023-03-21T14:50:41.966Z,47.67
2023-03-21T14:53:17.509Z,47.56
2023-03-21T14:55:48.190Z,47.82
2023-03-21T14:58:17.978Z,47.50
2023-03-21T15:00:49.715Z,47.45
2023-03-21T15:03:18.749Z,47.61
2023-03-21T15:05:47.814Z,48.06
2023-03-21T15:08:19.901Z,47.58
2023-03-21T15:11:06.314Z,47.76
2023-03-21T15:13:38.011Z,47.40
2023-03-21T15:16:06.721Z,47.29
2023-03-21T15:18:38.077Z,47.46
2023-03-21T15:21:11.862Z,47.17
2023-03-21T15:23:44.083Z,47.10
2023-03-21T15:26:17.190Z,46.75
2023-03-21T15:28:47.718Z,47.00
2023-03-21T15:31:18.663Z,47.17
2023-03-21T15:33:48.238Z,46.81
2023-03-21T15:36:20.872Z,47.08
2023-03-21T15:38:51.230Z,47.07
2023-03-21T15:41:29.628Z,47.49
2023-03-21T15:44:03.979Z,47.11
2023-03-21T15:46:42.251Z,47.11
2023-03-21T15:49:12.078Z,46.92
2023-03-21T15:51:41.686Z,47.46
2023-03-21T15:54:17.209Z,47.32
2023-03-21T15:56:51.669Z,46.91
2023-03-21T15:59:20.030Z,47.28
2023-03-21T16:01:48.841Z,47.11
2023-03-21T16:04:18.503Z,47.37
2023-03-21T16:06:54.190Z,46.60
2023-03-21T16:09:23.512Z,47.15
2023-03-21T16:11:54.425Z,46.56
2023-03-21T16:14:23.589Z,46.87
2023-03-21T16:16:52.955Z,46.87
2023-03-21T16:19:21.125Z,46.66
2023-03-21T16:21:48.934Z,46.60
2023-03-21T16:24:16.792Z,46.73
2023-03-21T16:26:47.769Z,46.62
2023-03-21T16:29:18.305Z,46.69
2023-03-21T16:31:48.791Z,47.02
2023-03-21T16:34:16.713Z,46.62
2023-03-21T16:36:44.864Z,46.58
2023-03-21T16:39:18.996Z,46.78
2023-03-21T16:41:47.657Z,46.49
2023-03-21T16:44:17.295Z,46.52
2023-03-21T16:46:47.142Z,46.55
2023-03-21T16:49:20.553Z,47.12
2023-03-21T16:51:48.637Z,46.63
2023-03-21T16:54:16.516Z,46.59
2023-03-21T16:56:47.044Z,46.71
2023-03-21T16:59:15.642Z,46.52
2023-03-21T17:01:48.112Z,47.04
2023-03-21T17:04:17.283Z,46.93
2023-03-21T17:06:47.584Z,46.93
2023-03-21T17:09:17.197Z,46.69
2023-03-21T17:11:45.663Z,46.83
2023-03-21T17:14:16.799Z,46.84
2023-03-21T17:16:46.936Z,46.97
2023-03-21T17:19:17.029Z,46.82
2023-03-21T17:21:45.695Z,46.95
2023-03-21T17:24:14.118Z,46.78
2023-03-21T17:26:42.020Z,46.60
2023-03-21T17:29:13.880Z,46.74
2023-03-21T17:31:42.417Z,46.81
2023-03-21T17:34:11.570Z,46.82
2023-03-21T17:36:42.108Z,47.18
2023-03-21T17:39:15.738Z,46.98
2023-03-21T17:41:43.674Z,46.73
2023-03-21T17:44:11.493Z,46.64
2023-03-21T17:46:39.532Z,47.26
2023-03-21T17:49:08.078Z,47.25
2023-03-21T17:51:37.484Z,47.08
2023-03-21T17:54:06.061Z,47.13
2023-03-21T17:56:37.709Z,47.17
2023-03-21T17:59:08.365Z,46.81
2023-03-21T18:01:36.524Z,47.29
2023-03-21T18:04:05.052Z,47.04
2023-03-21T18:06:34.345Z,47.40
2023-03-21T18:09:07.162Z,47.26
2023-03-21T18:11:35.270Z,47.38
2023-03-21T18:14:15.398Z,47.06
2023-03-21T18:16:45.056Z,46.99
2023-03-21T18:19:13.836Z,47.05
2023-03-21T18:21:44.672Z,47.36
2023-03-21T18:24:14.641Z,46.95
2023-03-21T18:26:42.572Z,47.28
2023-03-21T18:32:06.686Z,46.98
2023-03-21T18:34:36.845Z,47.39
2023-03-21T18:37:07.465Z,46.76
2023-03-21T18:39:37.913Z,47.10
2023-03-21T18:42:06.761Z,46.87
2023-03-21T18:44:38.641Z,47.17
2023-03-21T18:47:07.742Z,47.14
2023-03-21T18:50:10.673Z,46.57
2023-03-21T18:52:24.248Z,46.85
2023-03-21T18:54:54.355Z,46.83
2023-03-21T18:57:38.825Z,47.01
2023-03-21T19:00:13.501Z,47.08
2023-03-21T19:02:46.732Z,46.89
2023-03-21T19:05:16.776Z,46.53
2023-03-21T19:07:44.626Z,46.47
2023-03-21T19:10:19.567Z,46.41
2023-03-21T19:12:48.785Z,46.47
2023-03-21T19:15:19.566Z,46.36
2023-03-21T19:20:36.486Z,46.56
2023-03-21T19:23:06.010Z,46.56
2023-03-21T19:25:35.358Z,46.16
2023-03-21T19:28:03.834Z,46.68
2023-03-21T19:30:31.724Z,46.58
2023-03-21T19:32:59.519Z,46.49
2023-03-21T19:35:28.334Z,46.46
2023-03-21T19:37:56.749Z,46.43
2023-03-21T19:40:24.631Z,45.99
2023-03-21T19:42:54.068Z,45.90
2023-03-21T19:45:21.952Z,45.91
2023-03-21T19:47:49.918Z,45.98
2023-03-21T19:53:06.050Z,46.11
2023-03-21T19:55:34.046Z,46.24
2023-03-21T19:58:03.328Z,45.80
2023-03-21T20:00:31.356Z,46.02
2023-03-21T20:02:59.280Z,46.22
2023-03-21T20:05:27.432Z,45.96
2023-03-21T20:07:57.186Z,45.61
2023-03-21T20:10:27.603Z,45.63
2023-03-21T20:12:55.885Z,45.89
2023-03-21T20:15:28.422Z,45.84
2023-03-21T20:18:01.968Z,45.68
2023-03-21T20:20:30.366Z,45.80
2023-03-21T20:23:06.999Z,45.37
2023-03-21T20:25:36.577Z,45.71
2023-03-21T20:28:26.056Z,44.92
2023-03-21T20:30:56.934Z,44.62
2023-03-21T20:33:25.180Z,44.96
2023-03-21T20:38:45.647Z,45.15
2023-03-21T20:41:13.843Z,44.44
2023-03-21T20:46:31.446Z,44.75
2023-03-21T20:48:59.764Z,44.88
2023-03-21T20:54:16.207Z,44.44
2023-03-21T20:56:44.282Z,44.16
2023-03-21T20:59:20.875Z,44.38
2023-03-21T21:01:54.441Z,44.06
2023-03-21T21:04:23.087Z,43.98
2023-03-21T21:06:55.270Z,44.00
2023-03-21T21:09:23.242Z,44.29
2023-03-21T21:12:07.809Z,43.99
2023-03-21T21:14:36.764Z,44.00
2023-03-21T21:17:26.746Z,43.80
2023-03-21T21:19:55.393Z,43.94
2023-03-21T21:22:23.236Z,44.11
2023-03-21T21:24:51.287Z,43.98
2023-03-21T21:27:19.901Z,44.06
2023-03-21T21:29:49.924Z,43.97
2023-03-21T21:32:19.807Z,44.04
2023-03-21T21:34:48.012Z,44.28
2023-03-21T21:37:16.151Z,44.10
2023-03-21T21:39:44.139Z,43.87
2023-03-21T21:42:12.300Z,44.05
2023-03-21T21:44:44.141Z,43.73
2023-03-21T21:47:12.239Z,44.11
2023-03-21T21:49:42.195Z,44.33
2023-03-21T21:52:13.649Z,43.85
2023-03-21T21:54:45.743Z,44.43
2023-03-21T21:57:18.948Z,43.92
2023-03-21T21:59:46.952Z,43.89
2023-03-21T22:02:16.804Z,43.75
2023-03-21T22:04:46.368Z,43.98
2023-03-21T22:07:15.107Z,44.25
2023-03-21T22:09:43.436Z,43.95
2023-03-21T22:12:11.750Z,44.12
2023-03-21T22:14:40.941Z,43.86
2023-03-21T22:17:08.796Z,44.30
2023-03-21T22:19:39.080Z,44.36
2023-03-21T22:22:09.397Z,43.84
2023-03-21T22:24:37.543Z,44.31
2023-03-21T22:27:05.965Z,44.26
2023-03-21T22:29:33.755Z,44.04
2023-03-21T22:32:01.659Z,43.95
2023-03-21T22:34:29.429Z,44.32
2023-03-21T22:36:57.738Z,44.39
2023-03-21T22:39:27.287Z,44.09
2023-03-21T22:41:56.693Z,43.86
2023-03-21T22:44:24.678Z,44.46
2023-03-21T22:46:52.541Z,44.46
2023-03-21T22:49:20.478Z,44.36
2023-03-21T22:51:48.335Z,44.49
2023-03-21T22:54:16.377Z,44.06
2023-03-21T22:56:45.806Z,44.44
2023-03-21T22:59:13.583Z,44.50
2023-03-21T23:01:43.043Z,44.31
2023-03-21T23:04:10.975Z,44.21
2023-03-21T23:06:38.888Z,44.67
2023-03-21T23:09:06.880Z,44.12
2023-03-21T23:11:34.712Z,44.76
2023-03-21T23:14:08.058Z,44.24
2023-03-21T23:16:38.545Z,44.24
2023-03-21T23:19:08.090Z,44.60
2023-03-21T23:21:38.228Z,44.60
2023-03-21T23:24:06.644Z,44.65
2023-03-21T23:26:34.517Z,44.57
2023-03-21T23:29:03.895Z,44.62
2023-03-21T23:31:33.079Z,44.47
2023-03-21T23:34:01.666Z,44.63
2023-03-21T23:36:29.760Z,44.65
2023-03-21T23:38:57.736Z,44.38
2023-03-21T23:41:26.082Z,44.27
2023-03-21T23:43:54.013Z,44.47
2023-03-21T23:46:23.261Z,44.35
2023-03-21T23:48:51.269Z,44.73
2023-03-21T23:51:19.687Z,44.75
2023-03-21T23:53:48.442Z,44.75
2023-03-21T23:56:18.753Z,44.35
2023-03-21T23:58:47.202Z,44.80
